Time;durP1;ratioP1;P1;durP2;ratioP2;P2;SDS_P1;SDS_P2;PMS_P1;PMS_P2;Temp;Humidity;BMP_temperature;BMP_pressure;BME280_temperature;BME280_humidity;BME280_pressure;Samples;Min_cycle;Max_cycle;Signal;HPM_P1;HPM_P2
2023/08/23 00:00:25;;;;;;;3.28;1.88;;;;;;;16.71;96.87;101748.59;5005562;28;20653;-66
2023/08/23 00:02:50;;;;;;;5.70;1.70;;;;;;;16.71;97.06;101745.97;5000018;28;20084;-66
2023/08/23 00:05:16;;;;;;;5.38;1.60;;;;;;;16.73;97.06;101744.00;5018644;28;20045;-66
2023/08/23 00:07:41;;;;;;;2.97;1.90;;;;;;;16.75;97.13;101744.63;5002000;28;20053;-66
2023/08/23 00:10:07;;;;;;;3.92;1.90;;;;;;;16.77;97.12;101745.28;5020203;28;20091;-66
2023/08/23 00:12:33;;;;;;;4.25;1.85;;;;;;;16.76;97.29;101746.25;5012654;28;20116;-66
2023/08/23 00:14:58;;;;;;;3.33;1.88;;;;;;;16.67;97.48;101742.88;5023396;28;20029;-66
2023/08/23 00:17:24;;;;;;;3.00;1.77;;;;;;;16.55;97.65;101749.50;5016860;28;20131;-66
2023/08/23 00:19:49;;;;;;;4.07;1.92;;;;;;;16.51;98.14;101738.53;5003148;28;20084;-66
2023/08/23 00:22:15;;;;;;;6.28;1.80;;;;;;;16.51;97.93;101745.59;5022327;28;20038;-66
2023/08/23 00:24:40;;;;;;;4.00;1.90;;;;;;;16.54;97.54;101748.69;5003398;28;20087;-65
2023/08/23 00:27:06;;;;;;;4.18;2.05;;;;;;;16.53;97.54;101741.81;4999291;28;20048;-66
2023/08/23 00:29:31;;;;;;;5.63;1.77;;;;;;;16.43;97.83;101737.78;5006088;28;20472;-66
2023/08/23 00:31:57;;;;;;;3.03;1.95;;;;;;;16.34;98.29;101737.81;5002843;28;20053;-67
2023/08/23 00:34:22;;;;;;;8.10;1.77;;;;;;;16.30;98.58;101739.16;5003066;28;20403;-66
2023/08/23 00:36:48;;;;;;;4.82;1.88;;;;;;;16.31;98.69;101738.19;5022429;28;20487;-66
2023/08/23 00:39:14;;;;;;;3.40;2.20;;;;;;;16.35;98.71;101739.47;5007555;28;20028;-66
2023/08/23 00:41:39;;;;;;;5.40;2.15;;;;;;;16.38;98.96;101737.47;5006423;28;20123;-66
2023/08/23 00:44:05;;;;;;;8.43;2.17;;;;;;;16.41;99.27;101737.16;5007422;28;20083;-66
2023/08/23 00:46:30;;;;;;;6.22;2.40;;;;;;;16.41;98.95;101735.34;5004507;28;20403;-66
2023/08/23 00:48:56;;;;;;;7.22;2.15;;;;;;;16.43;99.26;101740.41;5025843;28;20029;-66
2023/08/23 00:51:22;;;;;;;6.38;2.25;;;;;;;16.43;99.26;101743.03;5007786;28;20041;-67
2023/08/23 00:53:48;;;;;;;4.70;2.30;;;;;;;16.42;99.33;101739.56;5008591;28;20042;-66
2023/08/23 00:56:15;;;;;;;11.52;2.83;;;;;;;16.37;99.56;101739.28;5005763;28;20040;-67
2023/08/23 00:58:40;;;;;;;7.97;2.72;;;;;;;16.29;99.79;101737.53;5007534;28;20111;-66
2023/08/23 01:01:06;;;;;;;3.60;1.92;;;;;;;16.20;100.00;101742.94;5003969;28;20405;-66
2023/08/23 01:03:33;;;;;;;5.05;2.00;;;;;;;16.12;100.00;101733.34;5008748;28;20030;-66
2023/08/23 01:06:04;;;;;;;5.70;2.28;;;;;;;16.09;100.00;101728.47;5020905;28;20069;-66
2023/08/23 01:08:33;;;;;;;7.82;2.15;;;;;;;16.10;100.00;101740.53;5025925;28;20120;-65
2023/08/23 01:11:12;;;;;;;9.20;2.17;;;;;;;16.08;100.00;101732.84;5001744;28;20056;-66
2023/08/23 01:14:04;;;;;;;3.92;2.10;;;;;;;16.00;100.00;101734.72;5020073;28;20088;-66
2023/08/23 01:16:34;;;;;;;6.03;1.90;;;;;;;15.96;100.00;101731.63;5020359;28;20045;-66
2023/08/23 01:19:36;;;;;;;5.93;2.17;;;;;;;15.92;100.00;101722.47;5019921;28;20037;-66
2023/08/23 01:22:04;;;;;;;9.68;3.10;;;;;;;15.88;100.00;101721.16;5022249;28;20480;-66
2023/08/23 01:24:31;;;;;;;4.03;2.22;;;;;;;15.85;100.00;101721.50;5001368;28;20132;-65
2023/08/23 01:26:58;;;;;;;4.57;2.42;;;;;;;15.83;100.00;101716.44;5017745;28;20397;-66
2023/08/23 01:29:23;;;;;;;8.23;2.13;;;;;;;15.81;100.00;101709.75;5006259;28;20033;-66
2023/08/23 01:31:53;;;;;;;6.43;2.17;;;;;;;15.81;100.00;101710.56;5003639;28;20088;-66
2023/08/23 01:34:34;;;;;;;4.72;2.20;;;;;;;15.82;100.00;101714.81;5003385;28;20038;-66
2023/08/23 01:37:03;;;;;;;5.22;2.20;;;;;;;15.85;100.00;101719.69;5005422;28;20048;-66
2023/08/23 01:39:29;;;;;;;5.07;2.63;;;;;;;15.83;100.00;101720.88;5001554;28;20044;-66
2023/08/23 01:41:56;;;;;;;6.28;2.10;;;;;;;15.80;100.00;101713.34;5025205;28;20025;-66
2023/08/23 01:44:21;;;;;;;5.75;2.10;;;;;;;15.81;100.00;101722.84;5003126;28;20762;-66
2023/08/23 01:46:47;;;;;;;7.10;2.53;;;;;;;15.82;100.00;101721.84;5008093;28;20037;-66
2023/08/23 01:49:13;;;;;;;4.78;2.15;;;;;;;15.83;100.00;101719.06;5006710;28;20440;-66
2023/08/23 01:51:38;;;;;;;10.52;2.17;;;;;;;15.83;100.00;101718.25;5004552;28;20482;-65
2023/08/23 01:54:04;;;;;;;6.60;2.10;;;;;;;15.82;100.00;101719.22;5005938;28;20041;-66
2023/08/23 01:56:29;;;;;;;5.82;2.40;;;;;;;15.78;100.00;101716.13;5007057;28;20128;-65
2023/08/23 01:58:54;;;;;;;5.82;2.50;;;;;;;15.76;100.00;101720.72;5007004;28;20061;-65
2023/08/23 02:01:20;;;;;;;10.13;2.08;;;;;;;15.77;100.00;101724.97;4990344;28;20087;-66
2023/08/23 02:03:46;;;;;;;6.93;2.47;;;;;;;15.78;100.00;101721.34;5008044;28;20052;-66
2023/08/23 02:06:11;;;;;;;6.07;2.03;;;;;;;15.77;100.00;101715.31;5003164;28;20056;-66
2023/08/23 02:08:38;;;;;;;5.22;2.13;;;;;;;15.77;100.00;101725.78;4986494;28;20029;-66
2023/08/23 02:11:03;;;;;;;7.20;2.58;;;;;;;15.76;100.00;101728.56;5001835;28;20041;-65
2023/08/23 02:13:29;;;;;;;6.82;2.03;;;;;;;15.74;100.00;101722.69;4995801;28;20044;-66
2023/08/23 02:15:54;;;;;;;5.93;2.40;;;;;;;15.74;100.00;101722.69;5004439;28;20372;-65
2023/08/23 02:18:21;;;;;;;4.85;1.90;;;;;;;15.74;100.00;101726.09;5005488;28;20080;-65
2023/08/23 02:20:57;;;;;;;7.88;2.50;;;;;;;15.72;100.00;101729.84;5002482;28;20030;-66
2023/08/23 02:23:23;;;;;;;6.38;2.28;;;;;;;15.70;100.00;101724.78;5016316;28;20053;-66
2023/08/23 02:25:52;;;;;;;5.55;1.92;;;;;;;15.69;100.00;101717.09;5003793;28;20049;-66
2023/08/23 02:28:18;;;;;;;8.88;2.25;;;;;;;15.68;100.00;101713.69;5007422;28;20025;-66
2023/08/23 02:30:44;;;;;;;5.80;2.20;;;;;;;15.64;100.00;101708.97;4989310;28;20391;-66
2023/08/23 02:33:10;;;;;;;10.95;2.20;;;;;;;15.56;100.00;101694.91;5025920;28;20045;-65
2023/08/23 02:35:41;;;;;;;4.85;2.20;;;;;;;15.48;100.00;101697.56;5008416;28;20026;-67
2023/08/23 02:38:08;;;;;;;11.80;2.33;;;;;;;15.40;100.00;101696.75;5022566;28;20083;-66
2023/08/23 02:40:34;;;;;;;7.03;2.30;;;;;;;15.34;100.00;101703.47;4993771;28;20173;-66
2023/08/23 02:42:59;;;;;;;8.77;2.20;;;;;;;15.34;100.00;101700.84;4992142;28;20026;-66
2023/08/23 02:45:25;;;;;;;5.22;2.15;;;;;;;15.35;100.00;101703.28;5006963;28;20030;-66
2023/08/23 02:47:51;;;;;;;5.47;2.35;;;;;;;15.38;100.00;101699.53;5023484;28;20108;-65
2023/08/23 02:50:17;;;;;;;5.60;2.40;;;;;;;15.41;100.00;101700.97;5009353;28;20090;-66
2023/08/23 02:52:43;;;;;;;3.83;2.33;;;;;;;15.42;100.00;101702.63;5005533;28;21235;-66
2023/08/23 02:55:08;;;;;;;7.20;2.40;;;;;;;15.41;100.00;101703.59;5007308;28;20704;-65
2023/08/23 02:57:33;;;;;;;9.98;4.25;;;;;;;15.40;100.00;101697.56;5023092;28;20061;-66
2023/08/23 02:59:59;;;;;;;6.28;2.50;;;;;;;15.42;100.00;101702.63;5006377;28;20017;-67
2023/08/23 03:02:24;;;;;;;5.68;3.03;;;;;;;15.42;100.00;101697.41;5007716;28;20038;-66
2023/08/23 03:04:50;;;;;;;6.53;2.55;;;;;;;15.35;100.00;101703.28;5011521;28;20087;-66
2023/08/23 03:07:15;;;;;;;5.55;2.30;;;;;;;15.31;100.00;101698.56;5005365;28;20041;-66
2023/08/23 03:09:42;;;;;;;10.82;2.70;;;;;;;15.30;100.00;101705.59;5008221;28;20116;-65
2023/08/23 03:12:08;;;;;;;12.20;2.70;;;;;;;15.30;100.00;101697.75;5024980;28;20076;-65
2023/08/23 03:14:33;;;;;;;5.43;2.42;;;;;;;15.25;100.00;101696.59;5007733;28;20033;-66
2023/08/23 03:16:59;;;;;;;6.90;2.75;;;;;;;15.14;100.00;101695.13;5010497;28;20033;-65
2023/08/23 03:19:24;;;;;;;6.47;2.63;;;;;;;15.07;100.00;101691.53;5002451;28;20013;-65
2023/08/23 03:21:50;;;;;;;5.55;2.50;;;;;;;14.99;100.00;101695.81;5008198;28;20273;-65
2023/08/23 03:24:16;;;;;;;4.70;2.50;;;;;;;14.98;100.00;101694.16;5003914;28;20050;-67
2023/08/23 03:26:42;;;;;;;3.45;2.13;;;;;;;15.01;100.00;101693.00;4992898;28;20041;-67
2023/08/23 03:29:07;;;;;;;6.00;2.50;;;;;;;15.01;100.00;101693.00;5001889;28;20041;-67
2023/08/23 03:31:33;;;;;;;4.22;2.65;;;;;;;15.03;100.00;101698.91;5007436;28;20041;-67
2023/08/23 03:33:58;;;;;;;8.35;2.90;;;;;;;15.04;100.00;101689.28;5025134;28;20026;-67
2023/08/23 03:36:25;;;;;;;5.53;2.67;;;;;;;15.04;100.00;101684.06;5023452;28;20038;-68
2023/08/23 03:38:50;;;;;;;10.15;3.08;;;;;;;15.02;100.00;101681.59;5010018;28;20029;-68
2023/08/23 03:41:16;;;;;;;7.63;2.60;;;;;;;14.96;100.00;101680.47;5020830;28;20064;-68
2023/08/23 03:43:41;;;;;;;6.28;2.72;;;;;;;14.91;100.00;101692.38;5023477;28;20068;-67
2023/08/23 03:46:07;;;;;;;6.32;2.83;;;;;;;14.88;100.00;101682.25;5000938;28;20104;-68
2023/08/23 03:48:32;;;;;;;7.20;2.60;;;;;;;14.88;100.00;101679.63;5006573;28;20025;-67
2023/08/23 03:50:59;;;;;;;3.92;2.13;;;;;;;14.83;100.00;101680.13;4994474;28;20048;-68
2023/08/23 03:53:25;;;;;;;5.88;2.58;;;;;;;14.80;100.00;101675.22;5005992;28;20029;-67
2023/08/23 03:55:53;;;;;;;3.35;2.17;;;;;;;14.78;100.00;101683.22;5007253;28;20559;-67
2023/08/23 03:58:19;;;;;;;6.35;3.10;;;;;;;14.78;100.00;101685.00;5006438;28;20037;-67
2023/08/23 04:00:51;;;;;;;5.88;2.47;;;;;;;14.78;100.00;101685.00;5017557;28;20025;-68
2023/08/23 04:03:16;;;;;;;6.85;2.60;;;;;;;14.76;100.00;101684.38;5004438;28;20470;-67
2023/08/23 04:05:42;;;;;;;5.43;3.00;;;;;;;14.69;100.00;101680.75;5004070;28;20071;-67
2023/08/23 04:08:07;;;;;;;7.03;2.67;;;;;;;14.63;100.00;101686.63;5027649;28;20033;-67
2023/08/23 04:10:33;;;;;;;6.38;2.85;;;;;;;14.58;100.00;101679.31;5008378;28;20071;-68
2023/08/23 04:12:58;;;;;;;7.05;2.65;;;;;;;14.56;100.00;101681.19;5007727;28;20046;-67
2023/08/23 04:15:24;;;;;;;6.10;2.50;;;;;;;14.56;100.00;101684.66;5006154;28;20033;-67
2023/08/23 04:17:49;;;;;;;4.68;2.92;;;;;;;14.58;100.00;101681.91;5005680;28;21333;-67
2023/08/23 04:20:15;;;;;;;5.55;3.42;;;;;;;14.61;100.00;101689.41;5010935;28;20040;-67
2023/08/23 04:22:40;;;;;;;6.18;3.30;;;;;;;14.62;100.00;101691.03;5005029;28;20127;-67
2023/08/23 04:25:07;;;;;;;8.30;3.25;;;;;;;14.64;100.00;101699.53;5008368;28;20029;-67
2023/08/23 04:27:33;;;;;;;9.65;3.20;;;;;;;14.62;100.00;101691.03;5008652;28;20110;-67
2023/08/23 04:29:59;;;;;;;6.95;3.13;;;;;;;14.60;100.00;101696.41;4992404;28;20104;-67
2023/08/23 04:32:24;;;;;;;5.13;3.30;;;;;;;14.62;100.00;101692.81;5000870;28;20049;-68
2023/08/23 04:34:50;;;;;;;9.00;3.40;;;;;;;14.59;100.00;101686.94;5008172;28;20034;-67
2023/08/23 04:37:16;;;;;;;4.18;2.88;;;;;;;14.52;100.00;101690.31;5020012;28;20530;-67
2023/08/23 04:39:42;;;;;;;10.52;3.33;;;;;;;14.45;100.00;101691.94;5023577;28;20112;-67
2023/08/23 04:42:08;;;;;;;5.93;2.58;;;;;;;14.36;100.00;101689.31;5006901;28;20088;-67
2023/08/23 04:44:33;;;;;;;5.55;2.97;;;;;;;14.27;100.00;101687.66;5018094;28;20026;-67
2023/08/23 04:47:00;;;;;;;8.32;3.42;;;;;;;14.23;100.00;101693.38;4991231;28;20035;-67
2023/08/23 04:49:28;;;;;;;8.57;3.47;;;;;;;14.21;100.00;101693.53;5018686;28;20052;-67
2023/08/23 04:51:53;;;;;;;10.00;3.00;;;;;;;14.19;100.00;101698.09;5005612;28;20045;-68
2023/08/23 04:54:19;;;;;;;5.90;4.05;;;;;;;14.18;100.00;101707.72;5006187;28;20096;-67
2023/08/23 04:56:44;;;;;;;12.93;4.18;;;;;;;14.17;100.00;101692.22;5004149;28;20033;-67
2023/08/23 04:59:10;;;;;;;9.88;3.13;;;;;;;14.17;100.00;101697.44;5005917;28;20048;-67
2023/08/23 05:01:35;;;;;;;8.63;3.13;;;;;;;14.17;100.00;101695.63;5020740;28;20030;-67
2023/08/23 05:04:01;;;;;;;8.25;4.38;;;;;;;14.17;100.00;101694.81;5024889;28;20063;-67
2023/08/23 05:06:27;;;;;;;6.45;3.20;;;;;;;14.13;100.00;101702.13;5003963;28;20045;-67
2023/08/23 05:08:53;;;;;;;6.20;3.15;;;;;;;14.14;100.00;101706.34;5005044;28;20030;-67
2023/08/23 05:11:23;;;;;;;5.32;3.20;;;;;;;14.14;100.00;101705.56;4992001;28;20043;-67
2023/08/23 05:13:49;;;;;;;5.43;2.97;;;;;;;14.13;100.00;101698.72;5007477;28;20176;-68
2023/08/23 05:16:15;;;;;;;8.88;3.50;;;;;;;14.14;100.00;101701.16;5006500;28;20041;-67
2023/08/23 05:18:41;;;;;;;11.05;3.33;;;;;;;14.16;100.00;101698.38;5004020;28;20499;-67
2023/08/23 05:21:09;;;;;;;7.28;3.35;;;;;;;14.21;100.00;101706.56;5006631;28;20064;-68
2023/08/23 05:23:34;;;;;;;7.00;3.65;;;;;;;14.26;100.00;101703.47;5004307;28;20127;-67
2023/08/23 05:26:00;;;;;;;8.80;3.33;;;;;;;14.26;100.00;101696.47;4986324;28;20049;-67
2023/08/23 05:28:26;;;;;;;8.02;2.92;;;;;;;14.27;100.00;101698.09;5005463;28;20037;-67
2023/08/23 05:30:51;;;;;;;7.43;3.72;;;;;;;14.31;100.00;101696.81;5007820;28;20049;-67
2023/08/23 05:33:21;;;;;;;5.55;3.55;;;;;;;14.34;100.00;101693.06;5006115;28;20029;-67
2023/08/23 05:35:46;;;;;;;14.45;4.68;;;;;;;14.41;100.00;101688.84;5000870;28;20542;-67
2023/08/23 05:38:12;;;;;;;5.55;2.85;;;;;;;14.43;100.00;101692.13;5008415;28;20112;-67
2023/08/23 05:40:38;;;;;;;6.25;3.08;;;;;;;14.49;100.00;101691.47;4993302;28;20091;-70
2023/08/23 05:43:05;;;;;;;5.60;3.03;;;;;;;14.53;100.00;101697.19;5020814;28;20538;-67
2023/08/23 05:45:30;;;;;;;4.13;2.72;;;;;;;14.58;100.00;101687.94;5006874;28;20427;-68
2023/08/23 05:47:56;;;;;;;11.90;3.40;;;;;;;14.65;100.00;101692.50;5005665;28;20026;-67
2023/08/23 05:50:22;;;;;;;5.47;2.80;;;;;;;14.72;100.00;101693.50;5011605;28;20029;-65
2023/08/23 05:52:47;;;;;;;6.03;2.67;;;;;;;14.77;100.00;101696.44;4993029;28;20037;-65
2023/08/23 05:55:13;;;;;;;5.47;3.25;;;;;;;14.84;100.00;101694.00;5023253;28;20021;-65
2023/08/23 05:57:38;;;;;;;5.95;3.22;;;;;;;14.89;100.00;101689.09;5007181;28;20508;-67
2023/08/23 06:00:05;;;;;;;5.22;2.70;;;;;;;14.93;100.00;101695.63;5003827;28;20033;-67
2023/08/23 06:02:38;;;;;;;7.40;2.92;;;;;;;15.01;100.00;101705.25;5019508;28;20030;-68
2023/08/23 06:05:05;;;;;;;6.45;3.10;;;;;;;15.08;100.00;101701.84;5021281;28;20480;-68
2023/08/23 06:07:31;;;;;;;8.10;3.30;;;;;;;15.26;100.00;101700.88;5018439;28;20087;-68
2023/08/23 06:09:56;;;;;;;8.50;4.20;;;;;;;15.45;100.00;101710.16;5021216;28;20028;-67
2023/08/23 06:12:25;;;;;;;17.05;4.38;;;;;;;15.59;100.00;101699.00;5004744;28;20038;-67
2023/08/23 06:14:50;;;;;;;7.70;4.53;;;;;;;15.73;100.00;101697.50;5020611;28;20071;-67
2023/08/23 06:17:16;;;;;;;8.90;4.30;;;;;;;15.85;100.00;101700.59;5022311;28;20511;-68
2023/08/23 06:19:42;;;;;;;10.75;4.35;;;;;;;15.91;100.00;101695.47;5018272;28;20513;-67
2023/08/23 06:22:08;;;;;;;13.82;6.45;;;;;;;16.08;100.00;101691.00;5023251;28;20523;-68
2023/08/23 06:24:34;;;;;;;14.90;5.80;;;;;;;16.10;100.00;101689.03;5016786;28;20384;-68
2023/08/23 06:26:59;;;;;;;8.75;5.38;;;;;;;16.17;100.00;101693.59;5019645;28;20036;-68
2023/08/23 06:29:25;;;;;;;10.82;6.00;;;;;;;16.22;100.00;101702.56;5026134;28;20577;-68
2023/08/23 06:31:50;;;;;;;8.43;5.47;;;;;;;16.29;100.00;101693.03;5017513;28;20045;-67
2023/08/23 06:34:16;;;;;;;10.40;5.47;;;;;;;16.41;100.00;101703.13;5021994;28;20037;-67
2023/08/23 06:36:41;;;;;;;9.98;4.70;;;;;;;16.46;100.00;101699.00;5006215;28;20045;-68
2023/08/23 06:39:07;;;;;;;10.00;4.80;;;;;;;16.54;100.00;101704.19;5005799;28;20030;-68
2023/08/23 06:41:32;;;;;;;9.25;5.20;;;;;;;16.62;100.00;101708.53;5002795;28;20543;-68
2023/08/23 06:44:01;;;;;;;10.35;5.65;;;;;;;16.71;100.00;101709.31;5003767;28;20030;-67
2023/08/23 06:46:27;;;;;;;14.68;6.05;;;;;;;16.83;100.00;101720.22;5021596;28;20037;-68
2023/08/23 06:48:54;;;;;;;10.70;6.65;;;;;;;16.93;100.00;101721.63;5023017;28;20036;-68
2023/08/23 06:51:20;;;;;;;16.52;5.70;;;;;;;17.07;100.00;101722.66;5021999;28;20061;-68
2023/08/23 06:53:47;;;;;;;12.15;6.35;;;;;;;17.23;100.00;101728.72;5023084;28;20483;-67
2023/08/23 06:56:13;;;;;;;13.55;5.80;;;;;;;17.42;100.00;101730.03;5016645;28;22137;-65
2023/08/23 06:58:38;;;;;;;10.70;4.60;;;;;;;17.64;100.00;101728.34;5021534;28;20120;-65
2023/08/23 07:01:14;;;;;;;12.50;5.68;;;;;;;17.90;100.00;101728.72;5020128;28;20047;-65
2023/08/23 07:03:43;;;;;;;18.98;6.03;;;;;;;18.15;100.00;101730.25;5022153;28;20045;-66
2023/08/23 07:06:13;;;;;;;12.32;4.82;;;;;;;18.56;99.67;101725.25;5000358;28;20052;-65
2023/08/23 07:08:43;;;;;;;15.90;5.72;;;;;;;19.12;96.52;101731.66;5015961;28;20041;-65
2023/08/23 07:11:09;;;;;;;9.07;5.05;;;;;;;19.34;94.90;101730.59;5019169;28;20423;-65
2023/08/23 07:13:36;;;;;;;11.02;5.28;;;;;;;19.71;93.01;101726.00;5004273;28;20029;-65
2023/08/23 07:16:02;;;;;;;10.63;4.63;;;;;;;20.05;89.16;101727.00;5017652;28;20049;-65
2023/08/23 07:18:29;;;;;;;13.32;5.00;;;;;;;20.41;86.85;101723.25;4988876;28;20116;-65
2023/08/23 07:20:54;;;;;;;10.45;4.93;;;;;;;20.67;84.86;101734.91;5004468;28;20046;-65
2023/08/23 07:23:20;;;;;;;14.60;4.70;;;;;;;20.95;83.74;101729.44;5017480;28;20037;-65
2023/08/23 07:25:45;;;;;;;17.13;4.57;;;;;;;21.41;81.98;101727.78;4990881;28;20048;-66
2023/08/23 07:28:11;;;;;;;14.68;4.72;;;;;;;21.80;76.78;101720.84;5023315;28;20403;-65
2023/08/23 07:30:37;;;;;;;16.40;5.22;;;;;;;21.97;75.82;101729.91;5025315;28;20034;-65
2023/08/23 07:33:03;;;;;;;13.98;5.50;;;;;;;22.25;73.22;101726.94;5007669;28;20132;-65
2023/08/23 07:35:29;;;;;;;14.10;4.90;;;;;;;22.64;71.92;101735.66;5024281;28;20183;-65
2023/08/23 07:37:54;;;;;;;23.15;5.03;;;;;;;23.06;71.04;101732.53;5021559;28;20049;-66
2023/08/23 07:40:20;;;;;;;11.38;3.88;;;;;;;23.46;69.26;101730.31;5009836;28;20040;-65
2023/08/23 07:42:45;;;;;;;8.73;4.20;;;;;;;23.73;67.81;101729.22;5019066;28;20594;-65
2023/08/23 07:45:11;;;;;;;8.18;3.70;;;;;;;23.75;69.24;101727.16;5025320;28;20029;-65
2023/08/23 07:47:36;;;;;;;14.77;4.03;;;;;;;23.93;67.59;101732.47;5000481;28;20042;-65
2023/08/23 07:50:03;;;;;;;15.63;5.03;;;;;;;24.28;65.48;101737.13;4991691;28;20096;-65
2023/08/23 07:52:29;;;;;;;9.27;4.38;;;;;;;24.38;63.01;101736.56;5022198;28;20045;-65
2023/08/23 07:54:54;;;;;;;17.23;4.97;;;;;;;24.64;63.41;101738.84;5024635;28;20025;-66
2023/08/23 07:57:20;;;;;;;10.40;4.45;;;;;;;24.76;58.57;101738.06;5006695;28;20461;-66
2023/08/23 07:59:45;;;;;;;8.50;4.45;;;;;;;24.90;58.50;101738.66;5004283;28;20038;-68
2023/08/23 08:02:11;;;;;;;11.25;4.13;;;;;;;25.08;59.32;101743.06;5020995;28;20049;-65
2023/08/23 08:04:37;;;;;;;13.00;4.57;;;;;;;25.39;57.43;101742.75;5004588;28;20365;-65
2023/08/23 08:07:03;;;;;;;10.98;4.32;;;;;;;25.18;57.35;101737.97;5021642;28;20036;-66
2023/08/23 08:09:28;;;;;;;7.60;4.00;;;;;;;25.59;55.52;101741.56;5007463;28;20532;-66
2023/08/23 08:11:54;;;;;;;14.85;4.68;;;;;;;25.70;55.72;101740.72;5021282;28;20057;-66
2023/08/23 08:14:19;;;;;;;14.00;5.13;;;;;;;25.93;57.03;101739.06;5004451;28;20041;-67
2023/08/23 08:16:45;;;;;;;14.00;4.82;;;;;;;26.19;56.68;101746.47;5004041;28;20038;-68
2023/08/23 08:19:10;;;;;;;11.32;4.53;;;;;;;26.51;55.13;101740.66;5021699;28;20029;-68
2023/08/23 08:21:36;;;;;;;15.40;5.90;;;;;;;26.45;53.83;101744.28;5022480;28;20084;-68
2023/08/23 08:24:02;;;;;;;12.07;5.70;;;;;;;26.66;52.59;101744.66;5020837;28;20033;-68
2023/08/23 08:26:28;;;;;;;23.73;5.25;;;;;;;26.60;55.05;101747.22;4993685;28;20041;-66
2023/08/23 08:28:54;;;;;;;14.43;3.83;;;;;;;26.81;53.59;101744.91;5010943;28;20053;-66
2023/08/23 08:31:20;;;;;;;15.68;4.63;;;;;;;26.88;53.90;101750.03;5019508;28;20041;-68
2023/08/23 08:33:46;;;;;;;9.30;4.53;;;;;;;27.05;52.50;101745.53;5020952;28;20080;-68
2023/08/23 08:36:13;;;;;;;10.32;4.25;;;;;;;27.05;53.33;101742.03;5006537;28;20038;-68
2023/08/23 08:38:39;;;;;;;17.58;5.20;;;;;;;26.97;53.24;101736.13;5007871;28;20043;-68
2023/08/23 08:41:04;;;;;;;11.10;4.25;;;;;;;27.17;52.37;101732.91;5009144;28;20042;-68
2023/08/23 08:43:31;;;;;;;19.30;5.20;;;;;;;27.25;52.28;101738.88;5008720;28;20029;-68
2023/08/23 08:45:57;;;;;;;10.88;4.75;;;;;;;27.54;51.52;101739.56;5023146;28;20041;-68
2023/08/23 08:48:23;;;;;;;8.90;4.60;;;;;;;27.84;50.55;101735.63;5023514;28;20457;-68
2023/08/23 08:50:49;;;;;;;14.60;5.93;;;;;;;27.68;49.25;101732.00;5007353;28;20048;-68
2023/08/23 08:53:15;;;;;;;12.40;5.22;;;;;;;27.80;50.69;101726.53;5003399;28;20507;-68
2023/08/23 08:55:42;;;;;;;18.95;6.25;;;;;;;28.17;49.81;101732.03;5024380;28;20395;-68
2023/08/23 08:58:08;;;;;;;10.18;4.63;;;;;;;28.09;50.68;101732.50;5008180;28;20044;-68
2023/08/23 09:00:34;;;;;;;9.45;4.90;;;;;;;28.14;49.25;101736.00;5021927;28;20491;-69
2023/08/23 09:03:00;;;;;;;13.63;4.00;;;;;;;28.24;48.95;101735.31;5006107;28;20029;-68
2023/08/23 09:05:27;;;;;;;10.63;4.35;;;;;;;28.47;49.38;101725.38;5021902;28;20488;-66
2023/08/23 09:07:54;;;;;;;10.40;4.40;;;;;;;28.46;48.40;101724.56;5003024;28;20029;-66
2023/08/23 09:10:20;;;;;;;11.93;4.95;;;;;;;28.51;47.58;101721.94;5026991;28;20099;-66
2023/08/23 09:12:45;;;;;;;14.25;5.03;;;;;;;28.46;46.94;101719.25;5022131;28;20056;-66
2023/08/23 09:15:11;;;;;;;16.23;5.93;;;;;;;27.94;48.33;101715.28;4994115;28;20040;-66
2023/08/23 09:17:36;;;;;;;22.55;5.75;;;;;;;28.06;48.53;101720.44;5021214;28;20029;-66
2023/08/23 09:20:06;;;;;;;13.48;4.70;;;;;;;28.04;49.15;101716.44;5005387;28;20029;-66
2023/08/23 09:22:33;;;;;;;13.77;5.60;;;;;;;28.10;49.56;101718.09;5020397;28;20049;-66
2023/08/23 09:25:00;;;;;;;15.13;5.97;;;;;;;28.03;49.10;101712.16;5004630;28;20044;-66
2023/08/23 09:27:26;;;;;;;16.17;5.38;;;;;;;28.05;49.67;101710.88;5022846;28;20424;-66
2023/08/23 09:29:56;;;;;;;8.35;3.65;;;;;;;28.24;49.29;101713.19;5005459;28;20037;-66
2023/08/23 09:32:21;;;;;;;15.40;5.10;;;;;;;28.07;50.53;101707.94;5023921;28;20083;-66
2023/08/23 09:34:47;;;;;;;12.23;4.30;;;;;;;28.32;49.84;101710.84;5021387;28;20041;-66
2023/08/23 09:37:12;;;;;;;11.05;4.72;;;;;;;28.18;48.49;101709.66;5005170;28;20392;-66
2023/08/23 09:39:38;;;;;;;16.15;4.97;;;;;;;28.48;48.57;101701.13;5023635;28;20112;-66
2023/08/23 09:42:05;;;;;;;15.05;5.03;;;;;;;28.20;47.63;101702.22;5005261;28;20060;-66
2023/08/23 09:44:40;;;;;;;12.30;4.97;;;;;;;28.12;49.30;101700.81;5019941;28;20488;-66
2023/08/23 09:47:12;;;;;;;12.73;3.97;;;;;;;28.38;49.81;101701.00;5023274;28;20060;-66
2023/08/23 09:49:41;;;;;;;9.63;3.85;;;;;;;28.55;50.41;101698.25;5023925;28;20506;-66
2023/08/23 09:52:09;;;;;;;8.90;3.85;;;;;;;28.64;49.96;101699.38;5021009;28;20045;-66
2023/08/23 09:54:49;;;;;;;11.00;4.18;;;;;;;28.47;48.67;101702.16;5022016;28;20282;-66
2023/08/23 09:57:16;;;;;;;13.65;4.25;;;;;;;28.79;48.13;101697.91;5018644;28;20057;-66
2023/08/23 09:59:42;;;;;;;11.88;4.53;;;;;;;28.64;48.70;101702.06;5022422;28;20380;-66
2023/08/23 10:02:10;;;;;;;12.35;5.50;;;;;;;28.75;48.81;101692.25;5021155;28;20060;-66
2023/08/23 10:04:40;;;;;;;11.77;5.10;;;;;;;28.61;49.59;101689.22;5022960;28;20037;-66
2023/08/23 10:07:07;;;;;;;11.80;3.63;;;;;;;28.70;49.15;101689.56;5005858;28;20096;-66
2023/08/23 10:09:35;;;;;;;7.72;3.30;;;;;;;28.75;48.29;101676.25;5020479;28;20037;-66
2023/08/23 10:12:04;;;;;;;11.20;3.88;;;;;;;28.68;49.21;101683.66;5016791;28;20044;-66
2023/08/23 10:14:33;;;;;;;14.70;4.68;;;;;;;28.51;49.58;101689.13;5019701;28;20466;-66
2023/08/23 10:17:01;;;;;;;15.95;3.95;;;;;;;28.59;50.76;101690.53;5018168;28;20124;-66
2023/08/23 10:19:26;;;;;;;12.60;3.85;;;;;;;28.59;51.08;101696.66;5022178;28;20420;-66
2023/08/23 10:21:52;;;;;;;8.75;4.68;;;;;;;28.79;51.00;101687.22;4996084;28;20044;-66
2023/08/23 10:24:17;;;;;;;12.30;4.75;;;;;;;28.48;49.21;101690.44;5022216;28;20022;-66
2023/08/23 10:26:52;;;;;;;13.13;4.22;;;;;;;28.13;49.74;101694.41;5003770;28;20131;-66
2023/08/23 10:29:31;;;;;;;7.82;4.25;;;;;;;28.10;50.79;101702.09;5018675;28;20042;-66
2023/08/23 10:31:57;;;;;;;7.60;4.28;;;;;;;28.03;50.88;101704.97;5019810;28;20069;-66
2023/08/23 10:34:24;;;;;;;9.00;3.42;;;;;;;27.81;50.14;101701.53;5020238;28;20763;-66
2023/08/23 10:36:50;;;;;;;9.55;4.03;;;;;;;27.49;51.67;101704.88;5017754;28;20034;-66
2023/08/23 10:39:16;;;;;;;8.30;3.63;;;;;;;27.31;53.06;101695.31;5003552;28;20036;-66
2023/08/23 10:41:41;;;;;;;10.75;3.53;;;;;;;27.81;52.50;101691.66;5002646;28;20033;-66
2023/08/23 10:44:14;;;;;;;8.38;3.75;;;;;;;28.05;51.26;101696.72;5003544;28;20025;-66
2023/08/23 10:46:44;;;;;;;14.15;3.53;;;;;;;28.25;50.53;101683.56;5006826;23;20519;-66
2023/08/23 10:49:14;;;;;;;6.95;2.83;;;;;;;28.64;50.67;101679.91;4995011;28;20069;-66
2023/08/23 10:51:43;;;;;;;10.13;3.20;;;;;;;28.60;50.28;101676.94;4999784;28;20046;-66
2023/08/23 10:54:13;;;;;;;10.98;3.53;;;;;;;28.47;49.52;101683.50;4984636;28;20049;-66
2023/08/23 10:56:39;;;;;;;8.80;4.00;;;;;;;28.83;46.19;101672.31;4975890;28;20046;-67
2023/08/23 10:59:08;;;;;;;7.88;3.47;;;;;;;28.66;46.84;101675.13;4968753;28;20046;-66
2023/08/23 11:01:38;;;;;;;9.52;3.53;;;;;;;28.39;49.04;101686.63;4984735;28;20042;-67
2023/08/23 11:04:07;;;;;;;11.52;3.40;;;;;;;28.18;49.73;101679.50;4984300;28;20050;-67
2023/08/23 11:06:33;;;;;;;11.63;2.70;;;;;;;28.51;49.23;101675.78;4983386;28;20039;-67
2023/08/23 11:08:59;;;;;;;11.80;2.55;;;;;;;28.65;48.38;101669.00;4954171;28;20172;-66
2023/08/23 11:11:28;;;;;;;5.30;1.88;;;;;;;28.77;47.92;101673.34;4972767;28;20042;-66
2023/08/23 11:13:54;;;;;;;4.72;1.77;;;;;;;28.92;48.07;101676.88;4972102;28;20027;-66